Afton, Minnesota
Current Conditions -  °F | °C
As of 5:31 PM on Monday 20 Oct 2014 (Local Time) from K21D Reporting Station
Clear Clear  
Wind Chill: 57°   Ceiling: Unl
Heat Index: 57°   Visibility: 10mi
Dew Point: 41°   Wind: 9mph
Humidity: 55%   Direction: 340°NNW
Pressure: 30.01"   Gusts: NA
Location:  44.9°N, 92.78°W
Report Text: K21D 202231Z AUTO 34008KT 10SM CLR 14/05 A3001 RMK AO2
Loading
Personal Weather Stations






























Interactive Weather Map
Tropical Storm Tracking
New forecast layout! Learn more

10-Day Weather Forecast

Advertisements
Track Severe Weather on mobile